sensor_id;sensor_type;location;lat;lon;timestamp;P1;durP1;ratioP1;P2;durP2;ratioP2
76574;SDS011;65439;50.948;6.988;2023-03-16T00:01:58;9.45;;;5.40;;
76574;SDS011;65439;50.948;6.988;2023-03-16T00:04:24;9.18;;;4.43;;
76574;SDS011;65439;50.948;6.988;2023-03-16T00:06:49;7.20;;;5.07;;
76574;SDS011;65439;50.948;6.988;2023-03-16T00:09:14;7.83;;;4.43;;
76574;SDS011;65439;50.948;6.988;2023-03-16T00:11:41;8.50;;;5.10;;
76574;SDS011;65439;50.948;6.988;2023-03-16T00:14:06;8.73;;;4.43;;
76574;SDS011;65439;50.948;6.988;2023-03-16T00:16:32;7.38;;;4.18;;
76574;SDS011;65439;50.948;6.988;2023-03-16T00:18:59;8.38;;;4.75;;
76574;SDS011;65439;50.948;6.988;2023-03-16T00:21:27;7.20;;;4.18;;
76574;SDS011;65439;50.948;6.988;2023-03-16T00:26:19;10.37;;;4.97;;
76574;SDS011;65439;50.948;6.988;2023-03-16T00:28:46;7.30;;;4.10;;
76574;SDS011;65439;50.948;6.988;2023-03-16T00:31:11;7.55;;;4.13;;
76574;SDS011;65439;50.948;6.988;2023-03-16T00:33:37;9.18;;;5.03;;
76574;SDS011;65439;50.948;6.988;2023-03-16T00:36:03;8.13;;;4.03;;
76574;SDS011;65439;50.948;6.988;2023-03-16T00:38:32;11.23;;;5.03;;
76574;SDS011;65439;50.948;6.988;2023-03-16T00:41:00;9.45;;;4.78;;
76574;SDS011;65439;50.948;6.988;2023-03-16T00:43:28;6.72;;;4.85;;
76574;SDS011;65439;50.948;6.988;2023-03-16T00:45:57;9.27;;;4.68;;
76574;SDS011;65439;50.948;6.988;2023-03-16T00:48:25;7.88;;;3.60;;
76574;SDS011;65439;50.948;6.988;2023-03-16T00:50:50;6.07;;;4.40;;
76574;SDS011;65439;50.948;6.988;2023-03-16T00:53:18;8.18;;;4.32;;
76574;SDS011;65439;50.948;6.988;2023-03-16T00:55:43;7.93;;;4.72;;
76574;SDS011;65439;50.948;6.988;2023-03-16T00:58:08;11.70;;;4.33;;
76574;SDS011;65439;50.948;6.988;2023-03-16T01:00:38;6.22;;;3.70;;
76574;SDS011;65439;50.948;6.988;2023-03-16T01:03:04;8.23;;;4.38;;
76574;SDS011;65439;50.948;6.988;2023-03-16T01:05:30;6.87;;;4.37;;
76574;SDS011;65439;50.948;6.988;2023-03-16T01:07:57;8.40;;;4.80;;
76574;SDS011;65439;50.948;6.988;2023-03-16T01:10:23;10.77;;;4.40;;
76574;SDS011;65439;50.948;6.988;2023-03-16T01:12:49;6.47;;;4.00;;
76574;SDS011;65439;50.948;6.988;2023-03-16T01:15:14;6.35;;;3.92;;
76574;SDS011;65439;50.948;6.988;2023-03-16T01:17:40;7.18;;;4.85;;
76574;SDS011;65439;50.948;6.988;2023-03-16T01:20:05;5.75;;;3.90;;
76574;SDS011;65439;50.948;6.988;2023-03-16T01:22:36;7.57;;;4.60;;
76574;SDS011;65439;50.948;6.988;2023-03-16T01:25:01;5.93;;;4.05;;
76574;SDS011;65439;50.948;6.988;2023-03-16T01:27:26;6.07;;;3.75;;
76574;SDS011;65439;50.948;6.988;2023-03-16T01:29:52;7.10;;;3.53;;
76574;SDS011;65439;50.948;6.988;2023-03-16T01:32:17;7.05;;;4.28;;
76574;SDS011;65439;50.948;6.988;2023-03-16T01:34:43;8.40;;;4.03;;
76574;SDS011;65439;50.948;6.988;2023-03-16T01:37:08;4.83;;;3.40;;
76574;SDS011;65439;50.948;6.988;2023-03-16T01:39:33;7.50;;;3.80;;
76574;SDS011;65439;50.948;6.988;2023-03-16T01:41:59;5.68;;;3.50;;
76574;SDS011;65439;50.948;6.988;2023-03-16T01:44:25;5.70;;;3.67;;
76574;SDS011;65439;50.948;6.988;2023-03-16T01:46:59;6.82;;;4.30;;
76574;SDS011;65439;50.948;6.988;2023-03-16T01:49:28;7.68;;;3.72;;
76574;SDS011;65439;50.948;6.988;2023-03-16T01:52:07;6.30;;;3.78;;
76574;SDS011;65439;50.948;6.988;2023-03-16T01:57:20;7.78;;;4.25;;
76574;SDS011;65439;50.948;6.988;2023-03-16T01:59:47;8.20;;;3.70;;
76574;SDS011;65439;50.948;6.988;2023-03-16T02:02:18;7.60;;;3.58;;
76574;SDS011;65439;50.948;6.988;2023-03-16T02:04:47;6.18;;;3.35;;
76574;SDS011;65439;50.948;6.988;2023-03-16T02:07:15;6.97;;;3.50;;
76574;SDS011;65439;50.948;6.988;2023-03-16T02:09:43;10.80;;;3.63;;
76574;SDS011;65439;50.948;6.988;2023-03-16T02:12:13;5.93;;;3.92;;
76574;SDS011;65439;50.948;6.988;2023-03-16T02:14:45;5.10;;;3.45;;
76574;SDS011;65439;50.948;6.988;2023-03-16T02:17:16;8.32;;;3.65;;
76574;SDS011;65439;50.948;6.988;2023-03-16T02:19:46;6.65;;;4.07;;
76574;SDS011;65439;50.948;6.988;2023-03-16T02:22:17;6.68;;;3.78;;
76574;SDS011;65439;50.948;6.988;2023-03-16T02:24:43;5.25;;;3.55;;
76574;SDS011;65439;50.948;6.988;2023-03-16T02:27:09;5.68;;;3.75;;
76574;SDS011;65439;50.948;6.988;2023-03-16T02:32:45;7.93;;;3.72;;
76574;SDS011;65439;50.948;6.988;2023-03-16T02:35:12;6.72;;;3.42;;
76574;SDS011;65439;50.948;6.988;2023-03-16T02:37:38;7.30;;;3.65;;
76574;SDS011;65439;50.948;6.988;2023-03-16T02:42:46;5.20;;;3.40;;
76574;SDS011;65439;50.948;6.988;2023-03-16T02:45:13;6.32;;;3.58;;
76574;SDS011;65439;50.948;6.988;2023-03-16T02:47:42;5.70;;;3.67;;
76574;SDS011;65439;50.948;6.988;2023-03-16T02:50:08;6.93;;;3.72;;
76574;SDS011;65439;50.948;6.988;2023-03-16T02:52:35;8.35;;;3.97;;
76574;SDS011;65439;50.948;6.988;2023-03-16T02:55:02;11.30;;;4.80;;
76574;SDS011;65439;50.948;6.988;2023-03-16T02:57:28;6.00;;;3.53;;
76574;SDS011;65439;50.948;6.988;2023-03-16T02:59:53;8.43;;;3.80;;
76574;SDS011;65439;50.948;6.988;2023-03-16T03:02:19;7.25;;;4.20;;
76574;SDS011;65439;50.948;6.988;2023-03-16T03:04:44;5.57;;;3.07;;
76574;SDS011;65439;50.948;6.988;2023-03-16T03:07:13;5.80;;;3.17;;
76574;SDS011;65439;50.948;6.988;2023-03-16T03:09:39;5.15;;;3.15;;
76574;SDS011;65439;50.948;6.988;2023-03-16T03:12:06;6.82;;;3.28;;
76574;SDS011;65439;50.948;6.988;2023-03-16T03:14:35;6.28;;;3.95;;
76574;SDS011;65439;50.948;6.988;2023-03-16T03:17:02;5.15;;;3.13;;
76574;SDS011;65439;50.948;6.988;2023-03-16T03:19:28;10.15;;;4.22;;
76574;SDS011;65439;50.948;6.988;2023-03-16T03:21:54;4.93;;;3.30;;
76574;SDS011;65439;50.948;6.988;2023-03-16T03:24:21;8.10;;;3.45;;
76574;SDS011;65439;50.948;6.988;2023-03-16T03:26:47;4.50;;;2.80;;
76574;SDS011;65439;50.948;6.988;2023-03-16T03:29:12;5.40;;;3.20;;
76574;SDS011;65439;50.948;6.988;2023-03-16T03:31:37;5.63;;;3.15;;
76574;SDS011;65439;50.948;6.988;2023-03-16T03:34:03;6.18;;;3.58;;
76574;SDS011;65439;50.948;6.988;2023-03-16T03:38:55;5.90;;;3.87;;
76574;SDS011;65439;50.948;6.988;2023-03-16T03:41:21;8.70;;;3.70;;
76574;SDS011;65439;50.948;6.988;2023-03-16T03:43:46;5.25;;;3.33;;
76574;SDS011;65439;50.948;6.988;2023-03-16T03:46:11;3.80;;;2.80;;
76574;SDS011;65439;50.948;6.988;2023-03-16T03:48:37;6.30;;;3.40;;
76574;SDS011;65439;50.948;6.988;2023-03-16T03:51:02;7.80;;;4.00;;
76574;SDS011;65439;50.948;6.988;2023-03-16T03:53:28;5.07;;;3.20;;
76574;SDS011;65439;50.948;6.988;2023-03-16T03:55:53;9.73;;;3.50;;
76574;SDS011;65439;50.948;6.988;2023-03-16T03:58:18;7.25;;;3.58;;
76574;SDS011;65439;50.948;6.988;2023-03-16T04:00:44;6.37;;;3.23;;
76574;SDS011;65439;50.948;6.988;2023-03-16T04:03:09;10.45;;;3.83;;
76574;SDS011;65439;50.948;6.988;2023-03-16T04:05:34;5.33;;;3.43;;
76574;SDS011;65439;50.948;6.988;2023-03-16T04:08:00;6.00;;;3.83;;
76574;SDS011;65439;50.948;6.988;2023-03-16T04:10:26;6.20;;;3.40;;
76574;SDS011;65439;50.948;6.988;2023-03-16T04:12:52;6.90;;;3.17;;
76574;SDS011;65439;50.948;6.988;2023-03-16T04:15:17;6.32;;;3.33;;
76574;SDS011;65439;50.948;6.988;2023-03-16T04:17:43;6.93;;;3.47;;
76574;SDS011;65439;50.948;6.988;2023-03-16T04:20:10;7.60;;;3.53;;
76574;SDS011;65439;50.948;6.988;2023-03-16T04:22:40;6.85;;;4.00;;
76574;SDS011;65439;50.948;6.988;2023-03-16T04:25:07;5.82;;;3.42;;
76574;SDS011;65439;50.948;6.988;2023-03-16T04:27:36;4.70;;;3.08;;
76574;SDS011;65439;50.948;6.988;2023-03-16T04:30:05;6.27;;;4.07;;
76574;SDS011;65439;50.948;6.988;2023-03-16T04:32:32;5.28;;;3.00;;
76574;SDS011;65439;50.948;6.988;2023-03-16T04:34:58;7.40;;;3.70;;
76574;SDS011;65439;50.948;6.988;2023-03-16T04:37:23;6.63;;;3.60;;
76574;SDS011;65439;50.948;6.988;2023-03-16T04:39:48;4.70;;;2.95;;
76574;SDS011;65439;50.948;6.988;2023-03-16T04:42:14;5.72;;;3.83;;
76574;SDS011;65439;50.948;6.988;2023-03-16T04:44:39;5.27;;;3.40;;
76574;SDS011;65439;50.948;6.988;2023-03-16T04:47:11;7.07;;;3.92;;
76574;SDS011;65439;50.948;6.988;2023-03-16T04:49:37;8.93;;;4.15;;
76574;SDS011;65439;50.948;6.988;2023-03-16T04:52:02;4.33;;;2.90;;
76574;SDS011;65439;50.948;6.988;2023-03-16T04:54:28;5.72;;;3.33;;
76574;SDS011;65439;50.948;6.988;2023-03-16T04:56:54;7.32;;;4.03;;
76574;SDS011;65439;50.948;6.988;2023-03-16T04:59:19;7.87;;;3.63;;
76574;SDS011;65439;50.948;6.988;2023-03-16T05:01:44;7.27;;;3.80;;
76574;SDS011;65439;50.948;6.988;2023-03-16T05:04:09;4.80;;;3.20;;
76574;SDS011;65439;50.948;6.988;2023-03-16T05:06:35;5.40;;;3.97;;
76574;SDS011;65439;50.948;6.988;2023-03-16T05:09:00;6.80;;;3.77;;
76574;SDS011;65439;50.948;6.988;2023-03-16T05:11:25;7.30;;;3.95;;
76574;SDS011;65439;50.948;6.988;2023-03-16T05:13:51;6.70;;;3.90;;
76574;SDS011;65439;50.948;6.988;2023-03-16T05:16:16;6.70;;;4.20;;
76574;SDS011;65439;50.948;6.988;2023-03-16T05:18:42;8.17;;;4.53;;
76574;SDS011;65439;50.948;6.988;2023-03-16T05:21:07;8.32;;;4.75;;
76574;SDS011;65439;50.948;6.988;2023-03-16T05:23:32;5.53;;;3.37;;
76574;SDS011;65439;50.948;6.988;2023-03-16T05:25:58;8.38;;;4.95;;
76574;SDS011;65439;50.948;6.988;2023-03-16T05:28:26;6.30;;;3.75;;
76574;SDS011;65439;50.948;6.988;2023-03-16T05:30:52;6.68;;;4.07;;
76574;SDS011;65439;50.948;6.988;2023-03-16T05:33:18;6.15;;;4.18;;
76574;SDS011;65439;50.948;6.988;2023-03-16T05:35:43;8.27;;;3.88;;
76574;SDS011;65439;50.948;6.988;2023-03-16T05:38:08;8.20;;;4.77;;
76574;SDS011;65439;50.948;6.988;2023-03-16T05:40:34;6.50;;;3.90;;
76574;SDS011;65439;50.948;6.988;2023-03-16T05:43:01;7.93;;;4.95;;
76574;SDS011;65439;50.948;6.988;2023-03-16T05:47:53;7.60;;;3.93;;
76574;SDS011;65439;50.948;6.988;2023-03-16T05:50:18;6.67;;;4.17;;
76574;SDS011;65439;50.948;6.988;2023-03-16T05:52:44;7.65;;;4.65;;
76574;SDS011;65439;50.948;6.988;2023-03-16T05:55:10;10.07;;;4.47;;
76574;SDS011;65439;50.948;6.988;2023-03-16T05:57:36;7.70;;;4.50;;
76574;SDS011;65439;50.948;6.988;2023-03-16T06:00:03;9.20;;;4.85;;
76574;SDS011;65439;50.948;6.988;2023-03-16T06:02:43;7.88;;;5.28;;
76574;SDS011;65439;50.948;6.988;2023-03-16T06:05:13;8.13;;;3.92;;
76574;SDS011;65439;50.948;6.988;2023-03-16T06:07:40;8.30;;;4.05;;
76574;SDS011;65439;50.948;6.988;2023-03-16T06:10:06;9.50;;;4.65;;
76574;SDS011;65439;50.948;6.988;2023-03-16T06:12:31;11.73;;;6.00;;
76574;SDS011;65439;50.948;6.988;2023-03-16T06:14:58;9.50;;;4.95;;
76574;SDS011;65439;50.948;6.988;2023-03-16T06:17:24;11.02;;;4.78;;
76574;SDS011;65439;50.948;6.988;2023-03-16T06:19:49;12.63;;;5.00;;
76574;SDS011;65439;50.948;6.988;2023-03-16T06:22:14;9.68;;;5.07;;
76574;SDS011;65439;50.948;6.988;2023-03-16T06:24:40;7.67;;;4.47;;
76574;SDS011;65439;50.948;6.988;2023-03-16T06:27:05;7.40;;;4.63;;
76574;SDS011;65439;50.948;6.988;2023-03-16T06:29:30;8.63;;;4.87;;
76574;SDS011;65439;50.948;6.988;2023-03-16T06:31:56;11.93;;;5.60;;
76574;SDS011;65439;50.948;6.988;2023-03-16T06:34:21;8.07;;;5.07;;
76574;SDS011;65439;50.948;6.988;2023-03-16T06:36:46;9.10;;;5.23;;
76574;SDS011;65439;50.948;6.988;2023-03-16T06:39:12;6.70;;;4.75;;
76574;SDS011;65439;50.948;6.988;2023-03-16T06:41:38;8.00;;;4.38;;
76574;SDS011;65439;50.948;6.988;2023-03-16T06:44:04;7.38;;;5.53;;
76574;SDS011;65439;50.948;6.988;2023-03-16T06:46:30;12.73;;;4.63;;
76574;SDS011;65439;50.948;6.988;2023-03-16T06:48:56;9.95;;;4.95;;
76574;SDS011;65439;50.948;6.988;2023-03-16T06:51:22;6.13;;;4.43;;
76574;SDS011;65439;50.948;6.988;2023-03-16T06:53:47;8.25;;;4.60;;
76574;SDS011;65439;50.948;6.988;2023-03-16T06:56:13;6.53;;;5.10;;
76574;SDS011;65439;50.948;6.988;2023-03-16T06:58:38;6.57;;;4.53;;
76574;SDS011;65439;50.948;6.988;2023-03-16T07:01:03;10.03;;;4.63;;
76574;SDS011;65439;50.948;6.988;2023-03-16T07:03:29;12.15;;;4.50;;
76574;SDS011;65439;50.948;6.988;2023-03-16T07:05:55;11.02;;;4.30;;
76574;SDS011;65439;50.948;6.988;2023-03-16T07:08:20;6.82;;;4.40;;
76574;SDS011;65439;50.948;6.988;2023-03-16T07:10:46;8.80;;;4.70;;
76574;SDS011;65439;50.948;6.988;2023-03-16T07:13:11;12.10;;;5.00;;
76574;SDS011;65439;50.948;6.988;2023-03-16T07:15:36;13.45;;;5.43;;
76574;SDS011;65439;50.948;6.988;2023-03-16T07:18:02;10.88;;;6.22;;
76574;SDS011;65439;50.948;6.988;2023-03-16T07:20:27;9.52;;;5.13;;
76574;SDS011;65439;50.948;6.988;2023-03-16T07:22:55;6.85;;;4.65;;
76574;SDS011;65439;50.948;6.988;2023-03-16T07:25:20;8.87;;;5.20;;
76574;SDS011;65439;50.948;6.988;2023-03-16T07:27:45;7.00;;;4.77;;
76574;SDS011;65439;50.948;6.988;2023-03-16T07:30:11;9.82;;;5.72;;
76574;SDS011;65439;50.948;6.988;2023-03-16T07:32:38;7.50;;;4.93;;
76574;SDS011;65439;50.948;6.988;2023-03-16T07:35:04;7.78;;;4.93;;
76574;SDS011;65439;50.948;6.988;2023-03-16T07:37:29;8.40;;;5.13;;
76574;SDS011;65439;50.948;6.988;2023-03-16T07:39:56;8.15;;;5.07;;
76574;SDS011;65439;50.948;6.988;2023-03-16T07:42:21;9.30;;;5.82;;
76574;SDS011;65439;50.948;6.988;2023-03-16T07:44:47;15.93;;;6.23;;
76574;SDS011;65439;50.948;6.988;2023-03-16T07:47:12;8.68;;;4.90;;
76574;SDS011;65439;50.948;6.988;2023-03-16T07:49:38;10.82;;;6.00;;
76574;SDS011;65439;50.948;6.988;2023-03-16T07:52:05;16.45;;;6.78;;
76574;SDS011;65439;50.948;6.988;2023-03-16T07:54:30;8.88;;;4.90;;
76574;SDS011;65439;50.948;6.988;2023-03-16T07:56:56;13.38;;;5.97;;
76574;SDS011;65439;50.948;6.988;2023-03-16T07:59:21;11.67;;;6.10;;
76574;SDS011;65439;50.948;6.988;2023-03-16T08:01:47;9.05;;;4.72;;
76574;SDS011;65439;50.948;6.988;2023-03-16T08:04:12;7.07;;;4.78;;
76574;SDS011;65439;50.948;6.988;2023-03-16T08:06:38;7.88;;;5.43;;
76574;SDS011;65439;50.948;6.988;2023-03-16T08:09:03;8.25;;;4.72;;
76574;SDS011;65439;50.948;6.988;2023-03-16T08:11:29;8.02;;;5.05;;
76574;SDS011;65439;50.948;6.988;2023-03-16T08:13:55;9.00;;;4.97;;
76574;SDS011;65439;50.948;6.988;2023-03-16T08:16:24;10.65;;;4.93;;
76574;SDS011;65439;50.948;6.988;2023-03-16T08:18:50;8.45;;;5.63;;
76574;SDS011;65439;50.948;6.988;2023-03-16T08:21:16;6.90;;;4.75;;
76574;SDS011;65439;50.948;6.988;2023-03-16T08:23:42;6.55;;;4.65;;
76574;SDS011;65439;50.948;6.988;2023-03-16T08:26:13;7.05;;;4.80;;
76574;SDS011;65439;50.948;6.988;2023-03-16T08:28:39;7.20;;;4.03;;
76574;SDS011;65439;50.948;6.988;2023-03-16T08:31:05;8.17;;;5.10;;
76574;SDS011;65439;50.948;6.988;2023-03-16T08:33:31;5.90;;;4.38;;
76574;SDS011;65439;50.948;6.988;2023-03-16T08:35:56;9.73;;;4.60;;
76574;SDS011;65439;50.948;6.988;2023-03-16T08:38:22;6.07;;;4.22;;
76574;SDS011;65439;50.948;6.988;2023-03-16T08:40:49;6.65;;;3.60;;
76574;SDS011;65439;50.948;6.988;2023-03-16T08:43:15;5.50;;;4.30;;
76574;SDS011;65439;50.948;6.988;2023-03-16T08:45:42;6.45;;;4.43;;
76574;SDS011;65439;50.948;6.988;2023-03-16T08:48:09;5.57;;;3.60;;
76574;SDS011;65439;50.948;6.988;2023-03-16T08:50:38;6.03;;;3.88;;
76574;SDS011;65439;50.948;6.988;2023-03-16T08:55:29;5.17;;;3.67;;
76574;SDS011;65439;50.948;6.988;2023-03-16T08:57:54;4.67;;;3.50;;
76574;SDS011;65439;50.948;6.988;2023-03-16T09:00:19;8.20;;;5.03;;
76574;SDS011;65439;50.948;6.988;2023-03-16T09:02:45;5.65;;;4.15;;
76574;SDS011;65439;50.948;6.988;2023-03-16T09:05:11;5.93;;;4.45;;
76574;SDS011;65439;50.948;6.988;2023-03-16T09:07:37;7.05;;;4.22;;
76574;SDS011;65439;50.948;6.988;2023-03-16T09:10:04;7.88;;;4.90;;
76574;SDS011;65439;50.948;6.988;2023-03-16T09:12:31;7.38;;;4.70;;
76574;SDS011;65439;50.948;6.988;2023-03-16T09:14:58;5.22;;;4.70;;
76574;SDS011;65439;50.948;6.988;2023-03-16T09:17:24;9.68;;;4.95;;
76574;SDS011;65439;50.948;6.988;2023-03-16T09:19:49;8.67;;;5.00;;
76574;SDS011;65439;50.948;6.988;2023-03-16T09:22:15;16.50;;;4.77;;
76574;SDS011;65439;50.948;6.988;2023-03-16T09:24:40;6.82;;;4.93;;
76574;SDS011;65439;50.948;6.988;2023-03-16T09:27:06;6.90;;;3.83;;
76574;SDS011;65439;50.948;6.988;2023-03-16T09:29:32;7.93;;;4.95;;
76574;SDS011;65439;50.948;6.988;2023-03-16T09:31:58;9.82;;;5.45;;
76574;SDS011;65439;50.948;6.988;2023-03-16T09:34:23;7.60;;;4.10;;
76574;SDS011;65439;50.948;6.988;2023-03-16T09:36:48;5.27;;;3.87;;
76574;SDS011;65439;50.948;6.988;2023-03-16T09:39:14;6.40;;;4.78;;
76574;SDS011;65439;50.948;6.988;2023-03-16T09:41:41;5.38;;;4.50;;
76574;SDS011;65439;50.948;6.988;2023-03-16T09:46:58;5.78;;;4.03;;
76574;SDS011;65439;50.948;6.988;2023-03-16T09:49:26;7.40;;;4.85;;
76574;SDS011;65439;50.948;6.988;2023-03-16T09:52:07;8.07;;;4.47;;
76574;SDS011;65439;50.948;6.988;2023-03-16T09:55:10;7.45;;;5.18;;
76574;SDS011;65439;50.948;6.988;2023-03-16T09:57:42;9.00;;;4.30;;
76574;SDS011;65439;50.948;6.988;2023-03-16T10:00:13;5.93;;;4.65;;
76574;SDS011;65439;50.948;6.988;2023-03-16T10:05:32;8.55;;;4.45;;
76574;SDS011;65439;50.948;6.988;2023-03-16T10:08:09;7.63;;;4.65;;
76574;SDS011;65439;50.948;6.988;2023-03-16T10:11:00;7.15;;;5.13;;
76574;SDS011;65439;50.948;6.988;2023-03-16T10:13:33;6.63;;;4.43;;
76574;SDS011;65439;50.948;6.988;2023-03-16T10:16:10;6.60;;;4.43;;
76574;SDS011;65439;50.948;6.988;2023-03-16T10:18:40;5.45;;;4.28;;
76574;SDS011;65439;50.948;6.988;2023-03-16T10:21:11;6.53;;;4.88;;
76574;SDS011;65439;50.948;6.988;2023-03-16T10:23:38;7.10;;;4.50;;
76574;SDS011;65439;50.948;6.988;2023-03-16T10:26:04;7.65;;;5.18;;
76574;SDS011;65439;50.948;6.988;2023-03-16T10:28:36;6.07;;;4.72;;
76574;SDS011;65439;50.948;6.988;2023-03-16T10:31:02;7.30;;;4.43;;
76574;SDS011;65439;50.948;6.988;2023-03-16T10:33:32;6.97;;;4.80;;
76574;SDS011;65439;50.948;6.988;2023-03-16T10:36:04;6.03;;;4.15;;
76574;SDS011;65439;50.948;6.988;2023-03-16T10:41:27;8.90;;;4.57;;
76574;SDS011;65439;50.948;6.988;2023-03-16T10:44:16;5.40;;;4.45;;
76574;SDS011;65439;50.948;6.988;2023-03-16T10:46:42;6.35;;;4.45;;
76574;SDS011;65439;50.948;6.988;2023-03-16T10:51:49;6.78;;;3.70;;
76574;SDS011;65439;50.948;6.988;2023-03-16T10:54:16;7.30;;;4.70;;
76574;SDS011;65439;50.948;6.988;2023-03-16T10:56:45;5.57;;;4.18;;
76574;SDS011;65439;50.948;6.988;2023-03-16T10:59:15;6.75;;;4.80;;
76574;SDS011;65439;50.948;6.988;2023-03-16T11:01:58;6.32;;;4.68;;
76574;SDS011;65439;50.948;6.988;2023-03-16T11:04:24;6.90;;;3.72;;
76574;SDS011;65439;50.948;6.988;2023-03-16T11:06:51;7.03;;;3.90;;
76574;SDS011;65439;50.948;6.988;2023-03-16T11:09:20;6.45;;;4.43;;
76574;SDS011;65439;50.948;6.988;2023-03-16T11:11:48;7.03;;;3.90;;
76574;SDS011;65439;50.948;6.988;2023-03-16T11:14:13;5.00;;;3.30;;
76574;SDS011;65439;50.948;6.988;2023-03-16T11:19:22;3.92;;;3.42;;
76574;SDS011;65439;50.948;6.988;2023-03-16T11:21:57;5.70;;;3.65;;
76574;SDS011;65439;50.948;6.988;2023-03-16T11:24:33;6.88;;;3.53;;
76574;SDS011;65439;50.948;6.988;2023-03-16T11:27:03;5.68;;;3.67;;
76574;SDS011;65439;50.948;6.988;2023-03-16T11:32:09;7.38;;;3.95;;
76574;SDS011;65439;50.948;6.988;2023-03-16T11:34:36;6.38;;;3.15;;
76574;SDS011;65439;50.948;6.988;2023-03-16T11:42:22;5.78;;;2.88;;
76574;SDS011;65439;50.948;6.988;2023-03-16T11:45:14;5.75;;;3.55;;
76574;SDS011;65439;50.948;6.988;2023-03-16T11:47:53;6.05;;;3.30;;
76574;SDS011;65439;50.948;6.988;2023-03-16T11:50:27;4.38;;;3.05;;
76574;SDS011;65439;50.948;6.988;2023-03-16T11:53:23;5.53;;;3.00;;
76574;SDS011;65439;50.948;6.988;2023-03-16T12:01:39;6.40;;;3.00;;
76574;SDS011;65439;50.948;6.988;2023-03-16T12:12:46;4.18;;;3.00;;
76574;SDS011;65439;50.948;6.988;2023-03-16T12:15:44;4.40;;;2.65;;
76574;SDS011;65439;50.948;6.988;2023-03-16T12:18:16;5.55;;;3.25;;
76574;SDS011;65439;50.948;6.988;2023-03-16T12:21:06;4.38;;;3.08;;
76574;SDS011;65439;50.948;6.988;2023-03-16T12:23:37;5.28;;;3.03;;
76574;SDS011;65439;50.948;6.988;2023-03-16T12:26:06;4.43;;;2.50;;
76574;SDS011;65439;50.948;6.988;2023-03-16T12:28:32;6.50;;;3.20;;
76574;SDS011;65439;50.948;6.988;2023-03-16T12:39:16;5.63;;;2.70;;
76574;SDS011;65439;50.948;6.988;2023-03-16T12:44:14;3.58;;;2.78;;
76574;SDS011;65439;50.948;6.988;2023-03-16T12:47:04;4.88;;;2.90;;
76574;SDS011;65439;50.948;6.988;2023-03-16T12:49:43;4.90;;;3.45;;
76574;SDS011;65439;50.948;6.988;2023-03-16T12:52:10;4.20;;;2.95;;
76574;SDS011;65439;50.948;6.988;2023-03-16T12:54:47;4.93;;;2.63;;
76574;SDS011;65439;50.948;6.988;2023-03-16T12:57:14;5.45;;;3.53;;
76574;SDS011;65439;50.948;6.988;2023-03-16T12:59:42;4.20;;;2.72;;
76574;SDS011;65439;50.948;6.988;2023-03-16T13:02:14;5.95;;;3.83;;
76574;SDS011;65439;50.948;6.988;2023-03-16T13:05:09;4.97;;;2.88;;
76574;SDS011;65439;50.948;6.988;2023-03-16T13:07:46;7.13;;;3.25;;
76574;SDS011;65439;50.948;6.988;2023-03-16T13:10:13;6.68;;;3.42;;
76574;SDS011;65439;50.948;6.988;2023-03-16T13:12:40;4.60;;;2.63;;
76574;SDS011;65439;50.948;6.988;2023-03-16T13:18:01;6.00;;;3.28;;
76574;SDS011;65439;50.948;6.988;2023-03-16T13:26:36;5.13;;;2.60;;
76574;SDS011;65439;50.948;6.988;2023-03-16T13:31:48;5.75;;;2.22;;
76574;SDS011;65439;50.948;6.988;2023-03-16T13:36:44;4.30;;;2.22;;
76574;SDS011;65439;50.948;6.988;2023-03-16T13:39:26;6.25;;;2.83;;
76574;SDS011;65439;50.948;6.988;2023-03-16T13:44:23;4.32;;;2.55;;
76574;SDS011;65439;50.948;6.988;2023-03-16T13:46:49;4.53;;;1.92;;
76574;SDS011;65439;50.948;6.988;2023-03-16T13:49:15;3.88;;;2.38;;
76574;SDS011;65439;50.948;6.988;2023-03-16T13:51:42;3.33;;;2.33;;
76574;SDS011;65439;50.948;6.988;2023-03-16T13:54:41;3.45;;;2.40;;
76574;SDS011;65439;50.948;6.988;2023-03-16T13:57:03;4.43;;;2.08;;
76574;SDS011;65439;50.948;6.988;2023-03-16T13:59:31;5.32;;;2.22;;
76574;SDS011;65439;50.948;6.988;2023-03-16T14:01:57;7.45;;;2.65;;
76574;SDS011;65439;50.948;6.988;2023-03-16T14:04:24;3.67;;;2.17;;
76574;SDS011;65439;50.948;6.988;2023-03-16T14:06:54;4.15;;;2.42;;
76574;SDS011;65439;50.948;6.988;2023-03-16T14:09:25;4.13;;;2.17;;
76574;SDS011;65439;50.948;6.988;2023-03-16T14:11:52;3.67;;;1.77;;
76574;SDS011;65439;50.948;6.988;2023-03-16T14:17:15;4.90;;;2.33;;
76574;SDS011;65439;50.948;6.988;2023-03-16T14:19:46;4.03;;;2.13;;
76574;SDS011;65439;50.948;6.988;2023-03-16T14:22:24;8.73;;;2.53;;
76574;SDS011;65439;50.948;6.988;2023-03-16T14:25:01;4.60;;;2.97;;
76574;SDS011;65439;50.948;6.988;2023-03-16T14:30:24;3.90;;;2.72;;
76574;SDS011;65439;50.948;6.988;2023-03-16T14:32:56;4.32;;;2.28;;
76574;SDS011;65439;50.948;6.988;2023-03-16T14:35:25;5.07;;;2.58;;
76574;SDS011;65439;50.948;6.988;2023-03-16T14:37:52;4.40;;;2.65;;
76574;SDS011;65439;50.948;6.988;2023-03-16T14:40:24;4.07;;;2.30;;
76574;SDS011;65439;50.948;6.988;2023-03-16T14:42:55;6.47;;;3.70;;
76574;SDS011;65439;50.948;6.988;2023-03-16T14:45:22;5.13;;;2.60;;
76574;SDS011;65439;50.948;6.988;2023-03-16T14:47:52;6.20;;;2.72;;
76574;SDS011;65439;50.948;6.988;2023-03-16T14:50:22;3.97;;;2.95;;
76574;SDS011;65439;50.948;6.988;2023-03-16T14:52:49;4.97;;;3.13;;
76574;SDS011;65439;50.948;6.988;2023-03-16T14:55:15;3.13;;;2.25;;
76574;SDS011;65439;50.948;6.988;2023-03-16T14:57:43;5.57;;;2.80;;
76574;SDS011;65439;50.948;6.988;2023-03-16T15:00:12;4.10;;;2.60;;
76574;SDS011;65439;50.948;6.988;2023-03-16T15:02:39;5.68;;;2.78;;
76574;SDS011;65439;50.948;6.988;2023-03-16T15:07:32;4.72;;;2.92;;
76574;SDS011;65439;50.948;6.988;2023-03-16T15:12:34;7.07;;;2.72;;
76574;SDS011;65439;50.948;6.988;2023-03-16T15:15:04;5.93;;;2.80;;
76574;SDS011;65439;50.948;6.988;2023-03-16T15:17:41;5.75;;;3.20;;
76574;SDS011;65439;50.948;6.988;2023-03-16T15:20:14;6.78;;;2.83;;
76574;SDS011;65439;50.948;6.988;2023-03-16T15:22:41;3.58;;;2.67;;
76574;SDS011;65439;50.948;6.988;2023-03-16T15:25:18;4.15;;;2.72;;
76574;SDS011;65439;50.948;6.988;2023-03-16T15:27:50;4.50;;;2.90;;
76574;SDS011;65439;50.948;6.988;2023-03-16T15:30:18;6.07;;;3.17;;
76574;SDS011;65439;50.948;6.988;2023-03-16T15:32:45;4.18;;;2.67;;
76574;SDS011;65439;50.948;6.988;2023-03-16T15:35:11;7.38;;;4.00;;
76574;SDS011;65439;50.948;6.988;2023-03-16T15:37:36;4.28;;;3.03;;
76574;SDS011;65439;50.948;6.988;2023-03-16T15:40:24;4.55;;;2.80;;
76574;SDS011;65439;50.948;6.988;2023-03-16T15:42:49;4.28;;;2.97;;
76574;SDS011;65439;50.948;6.988;2023-03-16T15:45:16;5.55;;;3.17;;
76574;SDS011;65439;50.948;6.988;2023-03-16T15:47:44;4.72;;;2.95;;
76574;SDS011;65439;50.948;6.988;2023-03-16T15:50:13;3.92;;;2.85;;
76574;SDS011;65439;50.948;6.988;2023-03-16T15:52:40;4.53;;;2.85;;
76574;SDS011;65439;50.948;6.988;2023-03-16T15:55:12;3.30;;;2.38;;
76574;SDS011;65439;50.948;6.988;2023-03-16T15:57:39;5.47;;;3.03;;
76574;SDS011;65439;50.948;6.988;2023-03-16T16:00:05;5.05;;;3.33;;
76574;SDS011;65439;50.948;6.988;2023-03-16T16:02:31;7.43;;;4.45;;
76574;SDS011;65439;50.948;6.988;2023-03-16T16:04:57;5.50;;;4.05;;
76574;SDS011;65439;50.948;6.988;2023-03-16T16:07:23;5.18;;;3.10;;
76574;SDS011;65439;50.948;6.988;2023-03-16T16:09:49;7.43;;;3.60;;
76574;SDS011;65439;50.948;6.988;2023-03-16T16:12:15;4.82;;;3.15;;
76574;SDS011;65439;50.948;6.988;2023-03-16T16:14:41;6.05;;;3.20;;
76574;SDS011;65439;50.948;6.988;2023-03-16T16:17:10;4.35;;;2.95;;
76574;SDS011;65439;50.948;6.988;2023-03-16T16:19:36;5.07;;;3.75;;
76574;SDS011;65439;50.948;6.988;2023-03-16T16:22:01;7.30;;;3.60;;
76574;SDS011;65439;50.948;6.988;2023-03-16T16:24:27;5.65;;;2.92;;